Airfield :
LOGIN :

Register | Disclaimer

   EN    FR    IT 

 










Legend :    VFR   Marginal VFR   IFR   Intensive IFR   Very Intensive IFR
Visi :
Ceiling :
>= 8 km
>= 3000ft
5 to 8 km
1000 to 3000 ft
1500m to 5 km
500 to 1000 ft
800 to 1500m
200 to 500 ft
< 800m
< 200 ft
Symbols :   Thunderstorms  Fog  Heavy snow  Heavy precipitations  Wind > 20 kt
SIGMETs :     Misc.  Thunderstorms  Icing  Turbulence  Mountain Waves  Volcanic Ashes







- Airport Elevation : 219 ft
- IATA code : DNR
- Download approach charts


LFRD - Dinard

CURRENT METAR :
  • 181300Z AUTO 31012KT 290V350 9999 FEW025 BKN049 OVC060 09/05 Q1025 TEMPO 4000 RA BKN014

EXPIRED METARs :
  • 181230Z AUTO 30012KT 9999 FEW022 SCT035 BKN044 10/06 Q1025 TEMPO 4000 RA BKN014
  • 181200Z AUTO 31012KT 9999 FEW025 BKN076 BKN092 10/06 Q1025 TEMPO 4000 RA BKN014
  • 181130Z AUTO 31013KT 9999 FEW023 BKN100 BKN150 10/05 Q1025 TEMPO 4000 RA BKN014
  • 181100Z AUTO 31014KT 9999 FEW022 SCT039 10/06 Q1025 TEMPO RA BKN015
  • 181030Z AUTO 31012KT 9999 BKN020 BKN029 BKN049 11/07 Q1025 TEMPO RA BKN015TCU

TAF TAF LFRD
Valid from the 18 at 12:00 until the 19 at 12:00 UTC


181100Z 1812/1912 30010KT 9999 BKN030
TEMPO 1812/1820 4000 RA BKN014
BECMG 1820/1822 VRB03KT
TEMPO 1818/1907 BKN008
PROB30
TEMPO 1822/1907 3000 BR
ATIS : +33 2 99 16 81 50
No reported NOTAMs for that airfield.



MET'MAP, your aeronautical weather chart ! - Copyright ORBIFLY December 2007 - Disclaimer

ORBIFLY MET'MAP TEAM :

Programming & Development : Alexandra Zaïnal
Concept & Development : Baudouin d'Aumeries
Co-Development & Prog : Marc-Olivier Méhu
Technical & hardware support : Manuel Goepfert

Contact : metmap@orbifly.com




SOURCES & CREDITS :

   NOAA